createdAt,value
2017-09-18T00:00:49.253Z,0.00
2017-09-18T00:01:49.330Z,0.00
2017-09-18T00:02:49.212Z,0.00
2017-09-18T00:03:49.196Z,0.00
2017-09-18T00:04:49.180Z,0.00
2017-09-18T00:05:49.169Z,0.00
2017-09-18T00:06:49.156Z,0.00
2017-09-18T00:07:49.231Z,0.00
2017-09-18T00:08:49.115Z,0.00
2017-09-18T00:09:49.098Z,0.00
2017-09-18T00:10:49.083Z,0.00
2017-09-18T00:11:49.077Z,0.00
2017-09-18T00:12:49.052Z,0.00
2017-09-18T00:13:49.139Z,0.00
2017-09-18T00:14:49.030Z,0.00
2017-09-18T00:15:49.002Z,0.00
2017-09-18T00:16:48.991Z,0.00
2017-09-18T00:17:48.969Z,0.00
2017-09-18T00:18:48.952Z,0.00
2017-09-18T00:19:49.037Z,0.00
2017-09-18T00:20:48.920Z,0.00
2017-09-18T00:21:48.908Z,0.00
2017-09-18T00:22:48.886Z,0.00
2017-09-18T00:23:48.871Z,0.00
2017-09-18T00:24:48.855Z,0.00
2017-09-18T00:25:48.939Z,0.00
2017-09-18T00:26:48.822Z,0.00
2017-09-18T00:27:48.807Z,0.00
2017-09-18T00:28:48.790Z,0.00
2017-09-18T00:29:48.773Z,0.00
2017-09-18T00:30:48.758Z,0.00
2017-09-18T00:31:48.847Z,0.00
2017-09-18T00:32:48.724Z,0.00
2017-09-18T00:33:48.708Z,0.00
2017-09-18T00:34:48.693Z,0.00
2017-09-18T00:35:48.676Z,0.00
2017-09-18T00:36:48.661Z,0.00
2017-09-18T00:37:48.744Z,0.00
2017-09-18T00:38:48.633Z,0.00
2017-09-18T00:39:48.617Z,0.00
2017-09-18T00:40:48.604Z,0.00
2017-09-18T00:41:48.584Z,0.00
2017-09-18T00:42:48.568Z,0.00
2017-09-18T00:43:48.702Z,0.00
2017-09-18T00:44:48.531Z,0.00
2017-09-18T00:45:48.513Z,0.00
2017-09-18T00:46:48.498Z,0.00
2017-09-18T00:47:48.483Z,0.00
2017-09-18T00:48:48.466Z,0.00
2017-09-18T00:49:48.561Z,0.00
2017-09-18T00:50:48.435Z,0.00
2017-09-18T00:51:48.417Z,0.00
2017-09-18T00:52:48.401Z,0.00
2017-09-18T00:53:48.384Z,0.00
2017-09-18T00:54:48.369Z,0.00
2017-09-18T00:55:48.452Z,0.00
2017-09-18T00:56:48.342Z,0.00
2017-09-18T00:57:48.327Z,0.00
2017-09-18T00:58:48.303Z,0.00
2017-09-18T00:59:48.288Z,0.00
2017-09-18T01:00:48.272Z,0.00
2017-09-18T01:01:48.355Z,0.00
2017-09-18T01:02:48.239Z,0.00
2017-09-18T01:03:48.224Z,0.00
2017-09-18T01:04:48.207Z,0.00
2017-09-18T01:05:48.188Z,0.00
2017-09-18T01:06:48.179Z,0.00
2017-09-18T01:07:48.259Z,0.00
2017-09-18T01:08:48.241Z,0.00
2017-09-18T01:09:48.123Z,0.00
2017-09-18T01:10:48.119Z,0.00
2017-09-18T01:11:48.091Z,0.00
2017-09-18T01:12:48.082Z,0.00
2017-09-18T01:13:48.064Z,0.00
2017-09-18T01:14:48.143Z,0.00
2017-09-18T01:15:48.035Z,0.00
2017-09-18T01:16:48.017Z,0.00
2017-09-18T01:17:47.996Z,0.00
2017-09-18T01:18:47.987Z,0.00
2017-09-18T01:19:47.961Z,0.00
2017-09-18T01:20:48.048Z,0.00
2017-09-18T01:21:47.928Z,0.00
2017-09-18T01:22:47.912Z,0.00
2017-09-18T01:23:47.894Z,0.00
2017-09-18T01:24:47.880Z,0.00
2017-09-18T01:25:47.867Z,0.00
2017-09-18T01:26:47.946Z,0.00
2017-09-18T01:27:47.829Z,0.00
2017-09-18T01:28:47.812Z,0.00
2017-09-18T01:29:47.801Z,0.00
2017-09-18T01:30:47.779Z,0.00
2017-09-18T01:31:47.762Z,0.00
2017-09-18T01:32:47.846Z,0.00
2017-09-18T01:33:47.734Z,0.00
2017-09-18T01:34:47.714Z,0.00
2017-09-18T01:35:47.697Z,0.00
2017-09-18T01:36:47.679Z,0.00
2017-09-18T01:37:47.668Z,0.00
2017-09-18T01:38:47.747Z,0.00
2017-09-18T01:39:47.630Z,0.00
2017-09-18T01:40:47.612Z,0.00
2017-09-18T01:41:47.597Z,0.00
2017-09-18T01:42:47.585Z,0.00
2017-09-18T01:43:47.563Z,0.00
2017-09-18T01:44:47.647Z,0.00
2017-09-18T01:45:47.534Z,0.00
2017-09-18T01:46:47.513Z,0.00
2017-09-18T01:47:47.501Z,0.00
2017-09-18T01:48:47.479Z,0.00
2017-09-18T01:49:47.461Z,0.00
2017-09-18T01:50:47.545Z,0.00
2017-09-18T01:51:47.429Z,0.00
2017-09-18T01:52:47.412Z,0.00
2017-09-18T01:53:47.419Z,0.00
2017-09-18T01:54:47.378Z,0.00
2017-09-18T01:55:47.362Z,0.00
2017-09-18T01:56:47.446Z,0.00
2017-09-18T01:57:47.326Z,0.00
2017-09-18T01:58:47.311Z,0.00
2017-09-18T01:59:47.301Z,0.00
2017-09-18T02:00:47.279Z,0.00
2017-09-18T02:01:47.261Z,0.00
2017-09-18T02:02:47.344Z,0.00
2017-09-18T02:03:47.225Z,0.00
2017-09-18T02:04:47.210Z,0.00
2017-09-18T02:05:47.191Z,0.00
2017-09-18T02:06:47.176Z,0.00
2017-09-18T02:07:47.158Z,0.00
2017-09-18T02:08:47.247Z,0.00
2017-09-18T02:09:47.125Z,0.00
2017-09-18T02:10:47.108Z,0.00
2017-09-18T02:11:47.092Z,0.00
2017-09-18T02:12:47.079Z,0.00
2017-09-18T02:13:47.056Z,0.00
2017-09-18T02:14:47.140Z,0.00
2017-09-18T02:15:47.124Z,0.00
2017-09-18T02:16:47.005Z,0.00
2017-09-18T02:17:46.988Z,0.00
2017-09-18T02:18:47.023Z,0.00
2017-09-18T02:19:46.961Z,0.00
2017-09-18T02:20:47.043Z,0.00
2017-09-18T02:21:46.921Z,0.00
2017-09-18T02:22:46.903Z,0.00
2017-09-18T02:23:46.885Z,0.00
2017-09-18T02:24:46.869Z,0.00
2017-09-18T02:25:46.855Z,0.00
2017-09-18T02:26:46.936Z,0.00
2017-09-18T02:27:46.819Z,0.00
2017-09-18T02:28:46.900Z,0.00
2017-09-18T02:29:46.783Z,0.00
2017-09-18T02:30:46.768Z,0.00
2017-09-18T02:31:46.756Z,0.00
2017-09-18T02:32:46.839Z,0.00
2017-09-18T02:33:46.716Z,0.00
2017-09-18T02:34:46.698Z,0.00
2017-09-18T02:35:46.781Z,0.00
2017-09-18T02:36:46.670Z,0.00
2017-09-18T02:37:46.653Z,0.00
2017-09-18T02:38:46.739Z,0.00
2017-09-18T02:39:46.613Z,0.00
2017-09-18T02:40:46.596Z,0.00
2017-09-18T02:41:46.584Z,0.00
2017-09-18T02:42:46.567Z,0.00
2017-09-18T02:43:46.552Z,0.00
2017-09-18T02:44:46.633Z,0.00
2017-09-18T02:45:46.511Z,0.00
2017-09-18T02:46:46.495Z,0.00
2017-09-18T02:47:46.479Z,0.00
2017-09-18T02:48:46.486Z,0.00
2017-09-18T02:49:46.445Z,0.00
2017-09-18T02:50:46.526Z,0.00
2017-09-18T02:51:46.411Z,0.00
2017-09-18T02:52:46.395Z,0.00
2017-09-18T02:53:46.382Z,0.00
2017-09-18T02:54:46.361Z,0.00
2017-09-18T02:55:46.344Z,0.00
2017-09-18T02:56:46.426Z,0.00
2017-09-18T02:57:46.309Z,0.00
2017-09-18T02:58:46.293Z,0.00
2017-09-18T02:59:46.277Z,0.00
2017-09-18T03:00:46.268Z,0.00
2017-09-18T03:01:46.246Z,0.00
2017-09-18T03:02:46.325Z,0.00
2017-09-18T03:03:46.207Z,0.00
2017-09-18T03:04:46.197Z,0.00
2017-09-18T03:05:46.179Z,0.00
2017-09-18T03:06:46.163Z,0.00
2017-09-18T03:07:46.142Z,0.00
2017-09-18T03:08:46.225Z,0.00
2017-09-18T03:09:46.107Z,0.00
2017-09-18T03:10:46.091Z,0.00
2017-09-18T03:11:46.073Z,0.00
2017-09-18T03:12:46.094Z,0.00
2017-09-18T03:13:46.047Z,0.00
2017-09-18T03:14:46.123Z,0.00
2017-09-18T03:15:46.008Z,0.00
2017-09-18T03:16:45.990Z,0.00
2017-09-18T03:17:45.973Z,0.00
2017-09-18T03:18:45.957Z,0.00
2017-09-18T03:19:45.946Z,0.00
2017-09-18T03:20:46.026Z,0.00
2017-09-18T03:21:45.907Z,0.00
2017-09-18T03:22:45.891Z,0.00
2017-09-18T03:23:45.879Z,0.00
2017-09-18T03:24:45.863Z,0.00
2017-09-18T03:25:45.840Z,0.00
2017-09-18T03:26:45.925Z,0.00
2017-09-18T03:27:45.814Z,0.00
2017-09-18T03:28:45.798Z,0.00
2017-09-18T03:29:45.779Z,0.00
2017-09-18T03:30:45.757Z,0.00
2017-09-18T03:31:45.741Z,0.00
2017-09-18T03:32:45.824Z,0.00
2017-09-18T03:33:45.707Z,0.00
2017-09-18T03:34:45.689Z,0.00
2017-09-18T03:35:45.673Z,0.00
2017-09-18T03:36:45.655Z,0.00
2017-09-18T03:37:45.637Z,0.00
2017-09-18T03:38:45.721Z,0.00
2017-09-18T03:39:45.610Z,0.00
2017-09-18T03:40:45.589Z,0.00
2017-09-18T03:41:45.573Z,0.00
2017-09-18T03:42:45.553Z,0.00
2017-09-18T03:43:45.542Z,0.00
2017-09-18T03:44:45.621Z,0.00
2017-09-18T03:45:45.503Z,0.00
2017-09-18T03:46:45.485Z,0.00
2017-09-18T03:47:45.469Z,0.00
2017-09-18T03:48:45.452Z,0.00
2017-09-18T03:49:45.440Z,0.00
2017-09-18T03:50:45.524Z,0.00
2017-09-18T03:51:45.403Z,0.00
2017-09-18T03:52:45.386Z,0.00
2017-09-18T03:53:45.368Z,0.00
2017-09-18T03:54:45.356Z,0.00
2017-09-18T03:55:45.340Z,0.00
2017-09-18T03:56:45.419Z,0.00
2017-09-18T03:57:45.301Z,0.00
2017-09-18T03:58:45.283Z,0.00
2017-09-18T03:59:45.269Z,0.00
2017-09-18T04:00:45.252Z,0.00
2017-09-18T04:01:45.240Z,0.00
2017-09-18T04:02:45.319Z,0.00
2017-09-18T04:03:45.202Z,0.00
2017-09-18T04:04:45.185Z,0.00
2017-09-18T04:05:45.194Z,0.00
2017-09-18T04:06:45.152Z,0.00
2017-09-18T04:07:45.134Z,0.00
2017-09-18T04:08:45.220Z,0.00
2017-09-18T04:09:45.101Z,0.00
2017-09-18T04:10:45.085Z,0.00
2017-09-18T04:11:45.070Z,0.00
2017-09-18T04:12:45.058Z,0.00
2017-09-18T04:13:45.034Z,0.00
2017-09-18T04:14:45.120Z,0.00
2017-09-18T04:15:45.003Z,0.00
2017-09-18T04:16:44.986Z,0.00
2017-09-18T04:17:44.969Z,0.00
2017-09-18T04:18:44.957Z,0.00
2017-09-18T04:19:44.935Z,0.00
2017-09-18T04:20:45.025Z,0.00
2017-09-18T04:21:44.903Z,0.00
2017-09-18T04:22:44.886Z,0.00
2017-09-18T04:23:44.873Z,0.00
2017-09-18T04:24:44.852Z,0.00
2017-09-18T04:25:44.834Z,0.00
2017-09-18T04:26:44.919Z,0.00
2017-09-18T04:27:44.802Z,0.00
2017-09-18T04:28:44.791Z,0.00
2017-09-18T04:29:44.773Z,0.00
2017-09-18T04:30:44.752Z,0.00
2017-09-18T04:31:44.733Z,0.00
2017-09-18T04:32:44.819Z,0.00
2017-09-18T04:33:44.700Z,0.00
2017-09-18T04:34:44.684Z,0.00
2017-09-18T04:35:44.667Z,0.00
2017-09-18T04:36:44.650Z,0.00
2017-09-18T04:37:44.638Z,0.00
2017-09-18T04:38:44.716Z,0.00
2017-09-18T04:39:44.599Z,0.00
2017-09-18T04:40:44.583Z,4.00
2017-09-18T04:41:44.569Z,4.00
2017-09-18T04:42:44.548Z,4.00
2017-09-18T04:43:44.531Z,4.00
2017-09-18T04:44:44.614Z,4.00
2017-09-18T04:45:44.497Z,4.00
2017-09-18T04:46:44.485Z,4.00
2017-09-18T04:47:44.467Z,8.00
2017-09-18T04:48:44.446Z,12.00
2017-09-18T04:49:44.427Z,8.00
2017-09-18T04:50:44.715Z,12.00
2017-09-18T04:51:44.398Z,16.00
2017-09-18T04:52:44.376Z,20.00
2017-09-18T04:53:44.358Z,20.00
2017-09-18T04:54:44.340Z,24.00
2017-09-18T04:55:44.323Z,28.00
2017-09-18T04:56:44.412Z,32.00
2017-09-18T04:57:44.295Z,36.00
2017-09-18T04:58:44.271Z,40.00
2017-09-18T04:59:44.255Z,48.00
2017-09-18T05:00:44.239Z,56.00
2017-09-18T05:01:44.222Z,60.00
2017-09-18T05:02:44.359Z,68.00
2017-09-18T05:03:44.188Z,80.00
2017-09-18T05:04:44.176Z,88.00
2017-09-18T05:05:44.153Z,96.00
2017-09-18T05:06:44.141Z,104.00
2017-09-18T05:07:44.118Z,116.00
2017-09-18T05:08:44.207Z,128.00
2017-09-18T05:09:44.087Z,144.00
2017-09-18T05:10:44.068Z,156.00
2017-09-18T05:11:44.050Z,164.00
2017-09-18T05:12:44.034Z,172.00
2017-09-18T05:13:44.015Z,188.00
2017-09-18T05:14:44.098Z,196.00
2017-09-18T05:15:43.980Z,208.00
2017-09-18T05:16:43.970Z,228.00
2017-09-18T05:17:43.952Z,244.00
2017-09-18T05:18:43.935Z,244.00
2017-09-18T05:19:43.913Z,248.00
2017-09-18T05:20:44.146Z,264.00
2017-09-18T05:21:43.878Z,280.00
2017-09-18T05:22:43.869Z,296.00
2017-09-18T05:23:43.845Z,316.00
2017-09-18T05:24:43.826Z,336.00
2017-09-18T05:25:43.810Z,336.00
2017-09-18T05:26:43.894Z,340.00
2017-09-18T05:27:43.776Z,360.00
2017-09-18T05:28:43.763Z,376.00
2017-09-18T05:29:43.741Z,396.00
2017-09-18T05:30:43.724Z,408.00
2017-09-18T05:31:43.712Z,420.00
2017-09-18T05:32:43.797Z,440.00
2017-09-18T05:33:43.672Z,452.00
2017-09-18T05:34:43.654Z,468.00
2017-09-18T05:35:43.640Z,492.00
2017-09-18T05:36:43.627Z,524.00
2017-09-18T05:37:43.605Z,532.00
2017-09-18T05:38:43.688Z,552.00
2017-09-18T05:39:43.570Z,552.00
2017-09-18T05:40:43.552Z,556.00
2017-09-18T05:41:43.535Z,560.00
2017-09-18T05:42:43.523Z,568.00
2017-09-18T05:43:43.502Z,584.00
2017-09-18T05:44:43.585Z,608.00
2017-09-18T05:45:43.466Z,632.00
2017-09-18T05:46:43.449Z,648.00
2017-09-18T05:47:43.433Z,668.00
2017-09-18T05:48:43.416Z,704.00
2017-09-18T05:49:43.404Z,728.00
2017-09-18T05:50:43.481Z,728.00
2017-09-18T05:51:43.365Z,744.00
2017-09-18T05:52:43.352Z,764.00
2017-09-18T05:53:43.329Z,780.00
2017-09-18T05:54:43.311Z,776.00
2017-09-18T05:55:43.301Z,780.00
2017-09-18T05:56:43.384Z,804.00
2017-09-18T05:57:43.261Z,876.00
2017-09-18T05:58:43.246Z,900.00
2017-09-18T05:59:43.232Z,952.00
2017-09-18T06:00:43.215Z,1032.00
2017-09-18T06:01:43.192Z,1148.00
2017-09-18T06:02:43.275Z,1236.00
2017-09-18T06:03:43.163Z,1492.00
2017-09-18T06:04:43.142Z,1772.00
2017-09-18T06:05:43.124Z,1932.00
2017-09-18T06:06:43.107Z,2100.00
2017-09-18T06:07:43.092Z,2488.00
2017-09-18T06:08:43.174Z,2244.00
2017-09-18T06:09:43.058Z,2572.00
2017-09-18T06:10:43.043Z,2644.00
2017-09-18T06:11:43.027Z,16320.00
2017-09-18T06:12:43.009Z,32320.00
2017-09-18T06:13:42.985Z,24544.00
2017-09-18T06:14:43.071Z,2668.00
2017-09-18T06:15:42.953Z,1748.00
2017-09-18T06:16:42.937Z,1916.00
2017-09-18T06:17:42.926Z,1308.00
2017-09-18T06:18:42.905Z,1384.00
2017-09-18T06:19:42.888Z,1484.00
2017-09-18T06:20:43.176Z,1376.00
2017-09-18T06:21:42.854Z,1432.00
2017-09-18T06:22:42.839Z,1552.00
2017-09-18T06:23:42.823Z,1448.00
2017-09-18T06:24:42.806Z,1436.00
2017-09-18T06:25:42.789Z,1448.00
2017-09-18T06:26:42.872Z,1412.00
2017-09-18T06:27:42.757Z,1388.00
2017-09-18T06:28:42.741Z,1320.00
2017-09-18T06:29:42.728Z,1356.00
2017-09-18T06:30:42.711Z,1368.00
2017-09-18T06:31:42.690Z,1384.00
2017-09-18T06:32:42.924Z,1408.00
2017-09-18T06:33:42.656Z,1452.00
2017-09-18T06:34:42.645Z,1512.00
2017-09-18T06:35:42.624Z,1588.00
2017-09-18T06:36:42.607Z,1660.00
2017-09-18T06:37:42.590Z,1712.00
2017-09-18T06:38:42.873Z,1788.00
2017-09-18T06:39:42.557Z,1864.00
2017-09-18T06:40:42.546Z,1956.00
2017-09-18T06:41:42.522Z,2036.00
2017-09-18T06:42:42.507Z,2124.00
2017-09-18T06:43:42.490Z,2212.00
2017-09-18T06:44:42.626Z,2312.00
2017-09-18T06:45:42.459Z,2456.00
2017-09-18T06:46:42.446Z,2564.00
2017-09-18T06:47:42.427Z,2688.00
2017-09-18T06:48:42.408Z,2792.00
2017-09-18T06:49:42.392Z,3024.00
2017-09-18T06:50:42.481Z,3296.00
2017-09-18T06:51:42.358Z,3472.00
2017-09-18T06:52:42.344Z,3560.00
2017-09-18T06:53:42.327Z,3608.00
2017-09-18T06:54:42.309Z,3488.00
2017-09-18T06:55:42.294Z,3380.00
2017-09-18T06:56:42.379Z,3300.00
2017-09-18T06:57:42.263Z,3124.00
2017-09-18T06:58:42.247Z,2984.00
2017-09-18T06:59:42.331Z,2772.00
2017-09-18T07:00:42.215Z,2764.00
2017-09-18T07:01:42.203Z,2916.00
2017-09-18T07:02:42.282Z,3128.00
2017-09-18T07:03:42.166Z,3360.00
2017-09-18T07:04:42.162Z,3288.00
2017-09-18T07:05:42.135Z,3520.00
2017-09-18T07:06:42.118Z,3812.00
2017-09-18T07:07:42.102Z,3836.00
2017-09-18T07:08:42.193Z,3828.00
2017-09-18T07:09:42.076Z,3848.00
2017-09-18T07:10:42.056Z,3996.00
2017-09-18T07:11:42.046Z,4036.00
2017-09-18T07:12:42.026Z,3712.00
2017-09-18T07:13:42.009Z,3948.00
2017-09-18T07:14:42.099Z,3828.00
2017-09-18T07:15:41.977Z,3576.00
2017-09-18T07:16:41.962Z,3392.00
2017-09-18T07:17:41.953Z,3332.00
2017-09-18T07:18:41.931Z,3980.00
2017-09-18T07:19:41.922Z,4388.00
2017-09-18T07:20:42.151Z,4412.00
2017-09-18T07:21:41.885Z,4344.00
2017-09-18T07:22:41.871Z,4272.00
2017-09-18T07:23:41.857Z,4308.00
2017-09-18T07:24:41.841Z,4520.00
2017-09-18T07:25:41.830Z,4932.00
2017-09-18T07:26:41.921Z,5196.00
2017-09-18T07:27:41.799Z,5464.00
2017-09-18T07:28:41.788Z,5440.00
2017-09-18T07:29:41.773Z,5384.00
2017-09-18T07:30:41.753Z,5376.00
2017-09-18T07:31:41.742Z,5336.00
2017-09-18T07:32:41.828Z,5492.00
2017-09-18T07:33:41.712Z,5532.00
2017-09-18T07:34:41.704Z,5536.00
2017-09-18T07:35:41.785Z,5628.00
2017-09-18T07:36:41.671Z,5752.00
2017-09-18T07:37:41.661Z,5828.00
2017-09-18T07:38:41.744Z,5968.00
2017-09-18T07:39:41.629Z,6144.00
2017-09-18T07:40:41.616Z,6120.00
2017-09-18T07:41:41.600Z,5748.00
2017-09-18T07:42:41.588Z,5152.00
2017-09-18T07:43:41.573Z,4712.00
2017-09-18T07:44:41.661Z,4536.00
2017-09-18T07:45:41.546Z,4564.00
2017-09-18T07:46:41.535Z,5060.00
2017-09-18T07:47:41.525Z,5388.00
2017-09-18T07:48:41.512Z,5716.00
2017-09-18T07:49:41.597Z,6296.00
2017-09-18T07:50:41.582Z,7032.00
2017-09-18T07:51:41.472Z,8248.00
2017-09-18T07:52:41.460Z,9300.00
2017-09-18T07:53:41.446Z,9700.00
2017-09-18T07:54:41.436Z,11036.00
2017-09-18T07:55:41.425Z,10984.00
2017-09-18T07:56:41.517Z,12532.00
2017-09-18T07:57:41.403Z,14540.00
2017-09-18T07:58:41.394Z,22592.00
2017-09-18T07:59:41.384Z,31360.00
2017-09-18T08:00:41.381Z,37280.00
2017-09-18T08:01:41.366Z,51584.00
2017-09-18T08:02:41.462Z,68256.00
2017-09-18T08:03:41.349Z,90240.00
2017-09-18T08:04:41.346Z,97088.00
2017-09-18T08:05:41.333Z,94112.00
2017-09-18T08:06:41.326Z,28256.00
2017-09-18T08:07:41.324Z,34688.00
2017-09-18T08:08:41.422Z,58688.00
2017-09-18T08:09:41.312Z,71168.00
2017-09-18T08:10:41.302Z,98176.00
2017-09-18T08:11:41.296Z,93824.00
2017-09-18T08:12:41.292Z,72736.00
2017-09-18T08:13:41.286Z,66848.00
2017-09-18T08:14:41.387Z,24576.00
2017-09-18T08:15:41.279Z,17760.00
2017-09-18T08:16:41.274Z,9996.00
2017-09-18T08:17:41.269Z,10088.00
2017-09-18T08:18:41.285Z,9620.00
2017-09-18T08:19:41.260Z,11100.00
2017-09-18T08:20:41.355Z,11488.00
2017-09-18T08:21:41.249Z,15216.00
2017-09-18T08:22:41.241Z,14800.00
2017-09-18T08:23:41.237Z,13544.00
2017-09-18T08:24:41.328Z,10860.00
2017-09-18T08:25:41.221Z,13040.00
2017-09-18T08:26:41.313Z,14064.00
2017-09-18T08:27:41.204Z,16344.00
2017-09-18T08:28:41.196Z,10860.00
2017-09-18T08:29:41.192Z,9660.00
2017-09-18T08:30:41.179Z,8944.00
2017-09-18T08:31:41.175Z,9716.00
2017-09-18T08:32:41.259Z,11228.00
2017-09-18T08:33:41.150Z,11956.00
2017-09-18T08:34:41.142Z,11868.00
2017-09-18T08:35:41.130Z,16168.00
2017-09-18T08:36:41.222Z,9896.00
2017-09-18T08:37:41.111Z,6960.00
2017-09-18T08:38:41.201Z,6188.00
2017-09-18T08:39:41.092Z,6004.00
2017-09-18T08:40:41.086Z,6004.00
2017-09-18T08:41:41.069Z,5948.00
2017-09-18T08:42:41.057Z,5968.00
2017-09-18T08:43:41.048Z,5924.00
2017-09-18T08:44:41.137Z,5920.00
2017-09-18T08:45:41.024Z,5944.00
2017-09-18T08:46:41.014Z,5736.00
2017-09-18T08:47:41.011Z,6572.00
2017-09-18T08:48:40.995Z,7888.00
2017-09-18T08:49:40.984Z,9476.00
2017-09-18T08:50:41.067Z,8492.00
2017-09-18T08:51:40.954Z,9720.00
2017-09-18T08:52:40.956Z,12120.00
2017-09-18T08:53:40.931Z,7320.00
2017-09-18T08:54:40.917Z,7804.00
2017-09-18T08:55:40.905Z,8656.00
2017-09-18T08:56:40.994Z,8548.00
2017-09-18T08:57:40.881Z,8264.00
2017-09-18T08:58:40.869Z,8092.00
2017-09-18T08:59:40.863Z,7468.00
2017-09-18T09:00:40.846Z,7604.00
2017-09-18T09:01:40.839Z,7792.00
2017-09-18T09:02:40.923Z,7252.00
2017-09-18T09:03:40.809Z,6756.00
2017-09-18T09:04:40.799Z,6632.00
2017-09-18T09:05:40.785Z,6336.00
2017-09-18T09:06:40.778Z,6588.00
2017-09-18T09:07:40.866Z,6484.00
2017-09-18T09:08:40.855Z,6352.00
2017-09-18T09:09:40.736Z,6276.00
2017-09-18T09:10:40.724Z,6252.00
2017-09-18T09:11:40.718Z,6616.00
2017-09-18T09:12:40.706Z,6700.00
2017-09-18T09:13:40.688Z,6432.00
2017-09-18T09:14:40.776Z,6424.00
2017-09-18T09:15:40.665Z,6344.00
2017-09-18T09:16:40.654Z,6440.00
2017-09-18T09:17:40.640Z,6604.00
2017-09-18T09:18:40.628Z,6344.00
2017-09-18T09:19:40.621Z,6188.00
2017-09-18T09:20:40.710Z,6104.00
2017-09-18T09:21:40.590Z,6276.00
2017-09-18T09:22:40.579Z,6288.00
2017-09-18T09:23:40.567Z,6124.00
2017-09-18T09:24:40.565Z,6368.00
2017-09-18T09:25:40.542Z,6192.00
2017-09-18T09:26:40.630Z,6008.00
2017-09-18T09:27:40.519Z,5864.00
2017-09-18T09:28:40.506Z,5820.00
2017-09-18T09:29:40.493Z,5660.00
2017-09-18T09:30:40.487Z,5760.00
2017-09-18T09:31:40.469Z,5800.00
2017-09-18T09:32:40.562Z,5696.00
2017-09-18T09:33:40.444Z,5652.00
2017-09-18T09:34:40.433Z,5656.00
2017-09-18T09:35:40.421Z,5664.00
2017-09-18T09:36:40.409Z,5700.00
2017-09-18T09:37:40.394Z,5892.00
2017-09-18T09:38:40.484Z,6064.00
2017-09-18T09:39:40.372Z,6128.00
2017-09-18T09:40:40.364Z,6124.00
2017-09-18T09:41:40.345Z,5872.00
2017-09-18T09:42:40.438Z,5940.00
2017-09-18T09:43:40.326Z,6316.00
2017-09-18T09:44:40.408Z,6356.00
2017-09-18T09:45:40.299Z,5852.00
2017-09-18T09:46:40.289Z,5784.00
2017-09-18T09:47:40.303Z,5728.00
2017-09-18T09:48:40.259Z,5704.00
2017-09-18T09:49:40.245Z,5736.00
2017-09-18T09:50:40.334Z,5932.00
2017-09-18T09:51:40.321Z,5900.00
2017-09-18T09:52:40.209Z,5856.00
2017-09-18T09:53:40.197Z,5916.00
2017-09-18T09:54:40.191Z,5732.00
2017-09-18T09:55:40.174Z,5532.00
2017-09-18T09:56:40.262Z,5416.00
2017-09-18T09:57:40.153Z,5268.00
2017-09-18T09:58:40.135Z,5212.00
2017-09-18T09:59:40.132Z,5192.00
2017-09-18T10:00:40.112Z,5064.00
2017-09-18T10:01:40.099Z,5180.00
2017-09-18T10:02:40.186Z,5148.00
2017-09-18T10:03:40.075Z,5156.00
2017-09-18T10:04:40.061Z,5060.00
2017-09-18T10:05:40.050Z,5120.00
2017-09-18T10:06:40.039Z,5064.00
2017-09-18T10:07:40.031Z,4876.00
2017-09-18T10:08:40.114Z,4696.00
2017-09-18T10:09:40.031Z,4696.00
2017-09-18T10:10:40.003Z,4704.00
2017-09-18T10:11:39.978Z,4632.00
2017-09-18T10:12:39.964Z,4672.00
2017-09-18T10:13:39.957Z,4792.00
2017-09-18T10:14:40.040Z,5004.00
2017-09-18T10:15:39.927Z,5392.00
2017-09-18T10:16:39.917Z,5668.00
2017-09-18T10:17:39.904Z,5896.00
2017-09-18T10:18:39.897Z,6140.00
2017-09-18T10:19:39.880Z,6444.00
2017-09-18T10:20:39.967Z,6212.00
2017-09-18T10:21:39.854Z,5684.00
2017-09-18T10:22:39.842Z,5556.00
2017-09-18T10:23:39.832Z,5824.00
2017-09-18T10:24:39.821Z,5960.00
2017-09-18T10:25:39.811Z,6320.00
2017-09-18T10:26:39.901Z,6848.00
2017-09-18T10:27:39.782Z,6900.00
2017-09-18T10:28:39.778Z,6316.00
2017-09-18T10:29:39.757Z,5500.00
2017-09-18T10:30:39.746Z,5228.00
2017-09-18T10:31:39.743Z,5128.00
2017-09-18T10:32:39.828Z,5152.00
2017-09-18T10:33:39.709Z,5272.00
2017-09-18T10:34:39.697Z,5364.00
2017-09-18T10:35:39.784Z,5640.00
2017-09-18T10:36:39.673Z,5780.00
2017-09-18T10:37:39.664Z,5792.00
2017-09-18T10:38:39.747Z,5784.00
2017-09-18T10:39:39.638Z,5656.00
2017-09-18T10:40:39.625Z,5688.00
2017-09-18T10:41:39.616Z,5640.00
2017-09-18T10:42:39.700Z,5908.00
2017-09-18T10:43:39.592Z,5708.00
2017-09-18T10:44:39.687Z,5652.00
2017-09-18T10:45:39.565Z,5796.00
2017-09-18T10:46:39.550Z,6000.00
2017-09-18T10:47:39.538Z,6148.00
2017-09-18T10:48:39.528Z,6112.00
2017-09-18T10:49:39.517Z,6028.00
2017-09-18T10:50:39.603Z,6384.00
2017-09-18T10:51:39.491Z,6548.00
2017-09-18T10:52:39.479Z,6348.00
2017-09-18T10:53:39.472Z,6392.00
2017-09-18T10:54:39.456Z,6004.00
2017-09-18T10:55:39.444Z,5712.00
2017-09-18T10:56:39.533Z,5832.00
2017-09-18T10:57:39.421Z,5728.00
2017-09-18T10:58:39.414Z,5840.00
2017-09-18T10:59:39.396Z,5748.00
2017-09-18T11:00:39.390Z,5888.00
2017-09-18T11:01:39.373Z,6212.00
2017-09-18T11:02:39.467Z,6456.00
2017-09-18T11:03:39.349Z,6664.00
2017-09-18T11:04:39.437Z,6492.00
2017-09-18T11:05:39.333Z,6020.00
2017-09-18T11:06:39.315Z,6012.00
2017-09-18T11:07:39.306Z,5636.00
2017-09-18T11:08:39.393Z,5424.00
2017-09-18T11:09:39.286Z,5220.00
2017-09-18T11:10:39.269Z,5008.00
2017-09-18T11:11:39.259Z,4632.00
2017-09-18T11:12:39.253Z,4772.00
2017-09-18T11:13:39.237Z,5060.00
2017-09-18T11:14:39.330Z,5264.00
2017-09-18T11:15:39.213Z,5532.00
2017-09-18T11:16:39.208Z,5716.00
2017-09-18T11:17:39.190Z,5756.00
2017-09-18T11:18:39.181Z,5700.00
2017-09-18T11:19:39.170Z,5644.00
2017-09-18T11:20:39.258Z,5276.00
2017-09-18T11:21:39.152Z,5136.00
2017-09-18T11:22:39.135Z,5132.00
2017-09-18T11:23:39.124Z,4992.00
2017-09-18T11:24:39.113Z,4892.00
2017-09-18T11:25:39.101Z,4912.00
2017-09-18T11:26:39.192Z,4876.00
2017-09-18T11:27:39.081Z,4884.00
2017-09-18T11:28:39.070Z,4952.00
2017-09-18T11:29:39.059Z,4980.00
2017-09-18T11:30:39.052Z,4824.00
2017-09-18T11:31:39.037Z,4424.00
2017-09-18T11:32:39.126Z,4512.00
2017-09-18T11:33:39.013Z,4572.00
2017-09-18T11:34:39.002Z,4420.00
2017-09-18T11:35:39.098Z,4332.00
2017-09-18T11:36:38.987Z,4388.00
2017-09-18T11:37:38.971Z,4568.00
2017-09-18T11:38:39.065Z,4612.00
2017-09-18T11:39:38.949Z,4684.00
2017-09-18T11:40:38.939Z,4552.00
2017-09-18T11:41:38.928Z,4500.00
2017-09-18T11:42:38.922Z,4600.00
2017-09-18T11:43:38.907Z,4380.00
2017-09-18T11:44:38.996Z,4512.00
2017-09-18T11:45:38.892Z,4688.00
2017-09-18T11:46:38.881Z,4600.00
2017-09-18T11:47:38.876Z,4548.00
2017-09-18T11:48:38.853Z,4460.00
2017-09-18T11:49:38.847Z,4464.00
2017-09-18T11:50:38.930Z,4420.00
2017-09-18T11:51:38.822Z,4388.00
2017-09-18T11:52:38.811Z,4300.00
2017-09-18T11:53:38.800Z,4376.00
2017-09-18T11:54:38.787Z,4348.00
2017-09-18T11:55:38.779Z,4576.00
2017-09-18T11:56:38.873Z,4784.00
2017-09-18T11:57:38.758Z,4764.00
2017-09-18T11:58:38.746Z,4732.00
2017-09-18T11:59:38.742Z,4872.00
2017-09-18T12:00:38.726Z,4800.00
2017-09-18T12:01:38.716Z,4696.00
2017-09-18T12:02:38.803Z,4592.00
2017-09-18T12:03:38.694Z,4396.00
2017-09-18T12:04:38.682Z,4428.00
2017-09-18T12:05:38.671Z,4684.00
2017-09-18T12:06:38.671Z,4620.00
2017-09-18T12:07:38.657Z,4640.00
2017-09-18T12:08:38.747Z,4728.00
2017-09-18T12:09:38.631Z,4884.00
2017-09-18T12:10:38.621Z,5020.00
2017-09-18T12:11:38.611Z,4816.00
2017-09-18T12:12:38.600Z,5008.00
2017-09-18T12:13:38.590Z,4980.00
2017-09-18T12:14:38.684Z,4936.00
2017-09-18T12:15:38.571Z,5144.00
2017-09-18T12:16:38.561Z,5132.00
2017-09-18T12:17:38.551Z,5068.00
2017-09-18T12:18:38.541Z,5104.00
2017-09-18T12:19:38.537Z,5092.00
2017-09-18T12:20:38.623Z,5052.00
2017-09-18T12:21:38.511Z,4736.00
2017-09-18T12:22:38.502Z,4308.00
2017-09-18T12:23:38.493Z,4312.00
2017-09-18T12:24:38.490Z,4352.00
2017-09-18T12:25:38.474Z,4328.00
2017-09-18T12:26:38.565Z,4340.00
2017-09-18T12:27:38.463Z,4172.00
2017-09-18T12:28:38.454Z,4316.00
2017-09-18T12:29:38.439Z,4368.00
2017-09-18T12:30:38.430Z,4424.00
2017-09-18T12:31:38.419Z,4544.00
2017-09-18T12:32:38.514Z,4556.00
2017-09-18T12:33:38.506Z,4516.00